Time;durP1;ratioP1;P1;durP2;ratioP2;P2;SDS_P1;SDS_P2;PMS_P1;PMS_P2;Temp;Humidity;BMP_temperature;BMP_pressure;BME280_temperature;BME280_humidity;BME280_pressure;Samples;Min_cycle;Max_cycle;Signal;HPM_P1;HPM_P2
2023/11/20 00:02:09;;;;;;;9.02;2.28;;;;;;;12.70;74.01;99738.22;10202904;28;20638;-74
2023/11/20 00:07:10;;;;;;;6.63;1.58;;;;;;;12.71;73.98;99732.72;10214592;28;20051;-74
2023/11/20 00:12:11;;;;;;;8.60;2.53;;;;;;;12.68;74.05;99735.69;10225812;28;20055;-72
2023/11/20 00:17:14;;;;;;;9.77;2.30;;;;;;;12.66;74.41;99734.19;10218562;28;20056;-70
2023/11/20 00:22:15;;;;;;;11.23;1.83;;;;;;;12.66;74.67;99729.69;10223687;28;20047;-73
2023/11/20 00:27:17;;;;;;;9.10;2.05;;;;;;;12.64;74.96;99729.00;10233482;28;20079;-72
2023/11/20 00:32:19;;;;;;;6.63;2.20;;;;;;;12.63;74.96;99729.97;10235438;28;20261;-72
2023/11/20 00:37:21;;;;;;;6.50;2.33;;;;;;;12.68;75.21;99732.19;10232620;28;20140;-71
2023/11/20 00:42:22;;;;;;;7.22;2.25;;;;;;;12.70;74.86;99728.41;10228624;28;20571;-71
2023/11/20 00:47:24;;;;;;;10.35;1.77;;;;;;;12.68;75.29;99725.00;10225478;28;20129;-72
2023/11/20 00:52:26;;;;;;;11.68;2.40;;;;;;;12.67;75.50;99722.50;10233874;28;20047;-72
2023/11/20 00:57:27;;;;;;;5.75;2.03;;;;;;;12.71;75.98;99735.41;10241311;28;20570;-73
2023/11/20 01:02:28;;;;;;;8.63;2.33;;;;;;;12.66;76.39;99724.34;10236831;28;20083;-75
2023/11/20 01:07:30;;;;;;;10.30;2.38;;;;;;;12.69;76.59;99741.91;10235402;28;20051;-75
2023/11/20 01:12:32;;;;;;;8.88;1.88;;;;;;;12.65;76.84;99738.66;10226922;28;20706;-71
2023/11/20 01:17:34;;;;;;;12.20;2.00;;;;;;;12.66;77.54;99743.03;10212687;28;20055;-72
2023/11/20 01:22:35;;;;;;;10.52;2.47;;;;;;;12.58;78.27;99732.28;10201699;28;20113;-71
2023/11/20 01:27:37;;;;;;;10.32;2.45;;;;;;;12.63;78.55;99732.66;10196939;28;20055;-73
2023/11/20 01:32:39;;;;;;;7.93;2.15;;;;;;;12.54;79.16;99733.56;10217758;28;20146;-72
2023/11/20 01:37:41;;;;;;;9.45;1.90;;;;;;;12.52;79.64;99725.69;10219390;28;20074;-72
2023/11/20 01:42:42;;;;;;;6.47;1.83;;;;;;;12.58;79.53;99734.94;10211191;28;20059;-74
2023/11/20 01:47:46;;;;;;;8.52;2.05;;;;;;;12.60;79.43;99706.25;10201682;28;20102;-72
2023/11/20 01:52:49;;;;;;;6.43;2.13;;;;;;;12.59;78.64;99701.88;10218971;28;20123;-72
2023/11/20 01:57:51;;;;;;;7.28;1.85;;;;;;;12.58;79.02;99718.06;10217289;28;20497;-72
2023/11/20 02:02:53;;;;;;;5.95;1.30;;;;;;;12.59;78.84;99720.59;10210539;28;20051;-72
2023/11/20 02:07:56;;;;;;;12.90;2.40;;;;;;;12.50;79.18;99724.16;10212104;28;20047;-74
2023/11/20 02:12:58;;;;;;;7.20;1.80;;;;;;;12.48;78.77;99715.47;10223011;28;20043;-71
2023/11/20 02:18:00;;;;;;;10.00;1.77;;;;;;;12.54;78.62;99722.88;10216548;28;20055;-72
2023/11/20 02:23:01;;;;;;;5.38;1.23;;;;;;;12.58;78.42;99715.38;10211035;28;20051;-72
2023/11/20 02:28:15;;;;;;;8.52;3.13;;;;;;;12.55;78.16;99713.88;10214676;28;20110;-70
2023/11/20 02:33:17;;;;;;;7.97;2.03;;;;;;;12.53;78.43;99705.16;10226209;28;20047;-72
2023/11/20 02:38:21;;;;;;;8.13;2.53;;;;;;;12.61;77.72;99718.63;10225472;28;20047;-72
2023/11/20 02:43:22;;;;;;;10.60;2.63;;;;;;;12.60;77.49;99716.94;10225109;28;20548;-75
2023/11/20 02:48:26;;;;;;;6.93;2.05;;;;;;;12.64;77.30;99706.78;10221243;28;20688;-73
2023/11/20 02:53:30;;;;;;;5.82;1.90;;;;;;;12.62;77.48;99701.59;10227977;28;20109;-74
2023/11/20 02:58:31;;;;;;;6.10;1.83;;;;;;;12.61;77.57;99702.59;10225366;28;20667;-71
2023/11/20 03:03:33;;;;;;;8.10;1.80;;;;;;;12.57;78.99;99708.41;10206608;28;20065;-71
2023/11/20 03:08:35;;;;;;;5.88;1.65;;;;;;;12.56;80.29;99707.53;10223341;28;20047;-70
2023/11/20 03:13:38;;;;;;;7.45;1.90;;;;;;;12.51;81.82;99696.47;10224581;28;20043;-72
2023/11/20 03:18:40;;;;;;;7.60;1.85;;;;;;;12.54;82.02;99696.16;10223154;28;20059;-73
2023/11/20 03:23:41;;;;;;;8.50;1.92;;;;;;;12.52;82.04;99696.31;10210680;28;20152;-74
2023/11/20 03:28:43;;;;;;;8.73;2.15;;;;;;;12.49;82.26;99687.75;10223170;28;20478;-71
2023/11/20 03:33:47;;;;;;;8.57;2.08;;;;;;;12.41;82.06;99685.00;10221731;28;20039;-72
2023/11/20 03:38:50;;;;;;;7.30;2.17;;;;;;;12.48;81.71;99681.59;10223435;28;20047;-71
2023/11/20 03:43:52;;;;;;;8.38;1.60;;;;;;;12.44;81.70;99674.03;10223583;28;20064;-73
2023/11/20 03:48:54;;;;;;;10.52;3.35;;;;;;;12.42;83.36;99692.03;10221712;28;20208;-73
2023/11/20 03:53:56;;;;;;;8.00;1.60;;;;;;;12.38;83.84;99688.81;10206227;28;20274;-74
2023/11/20 03:58:57;;;;;;;9.20;1.75;;;;;;;12.35;84.08;99686.44;10221037;28;20055;-71
2023/11/20 04:03:58;;;;;;;7.50;1.98;;;;;;;12.35;84.13;99681.09;10221018;28;20118;-71
2023/11/20 04:09:00;;;;;;;7.25;1.88;;;;;;;12.38;85.80;99680.81;10214334;28;20484;-75
2023/11/20 04:14:01;;;;;;;8.95;2.65;;;;;;;12.36;87.37;99688.97;10246378;28;20533;-75
2023/11/20 04:19:05;;;;;;;7.17;1.50;;;;;;;12.32;88.60;99686.75;10222230;28;20697;-71
2023/11/20 04:24:09;;;;;;;8.40;2.10;;;;;;;12.31;89.36;99682.38;10213020;28;20071;-70
2023/11/20 04:29:10;;;;;;;7.63;1.80;;;;;;;12.31;88.95;99695.72;10221819;28;20169;-72
2023/11/20 04:34:12;;;;;;;8.18;1.70;;;;;;;12.18;87.69;99675.56;10206390;28;20193;-68
2023/11/20 04:39:13;;;;;;;12.98;2.75;;;;;;;12.21;88.19;99671.78;10197412;28;20437;-71
2023/11/20 04:44:15;;;;;;;8.05;1.70;;;;;;;12.19;87.62;99668.44;10199923;28;20134;-72
2023/11/20 04:49:16;;;;;;;7.72;1.75;;;;;;;12.19;88.39;99671.09;10209354;28;20058;-72
2023/11/20 04:54:18;;;;;;;8.32;2.13;;;;;;;12.10;90.42;99659.47;10202860;28;20062;-70
2023/11/20 04:59:19;;;;;;;4.00;1.20;;;;;;;12.07;92.12;99661.56;10217032;28;20153;-72
2023/11/20 05:04:23;;;;;;;4.40;1.30;;;;;;;12.08;92.68;99668.59;10220439;28;20071;-71
2023/11/20 05:09:24;;;;;;;9.07;1.88;;;;;;;12.02;93.48;99660.22;10199739;28;20099;-72
2023/11/20 05:14:25;;;;;;;7.35;1.90;;;;;;;12.08;93.61;99663.28;10218315;28;20102;-70
2023/11/20 05:19:27;;;;;;;7.68;2.00;;;;;;;12.13;92.34;99669.00;10223833;28;20047;-72
2023/11/20 05:24:29;;;;;;;6.90;1.90;;;;;;;12.13;90.74;99666.31;10250757;28;20070;-74
2023/11/20 05:29:30;;;;;;;5.72;1.02;;;;;;;12.13;90.78;99667.19;10222069;28;20118;-71
2023/11/20 05:34:33;;;;;;;5.13;2.35;;;;;;;12.15;90.64;99667.84;10215861;28;20047;-72
2023/11/20 05:39:35;;;;;;;7.03;1.50;;;;;;;12.14;89.79;99678.69;10212166;28;20529;-71
2023/11/20 05:44:36;;;;;;;3.95;1.63;;;;;;;12.14;89.54;99684.03;10216284;28;20051;-72
2023/11/20 05:49:40;;;;;;;5.40;1.40;;;;;;;12.09;89.02;99675.63;10215934;28;20055;-73
2023/11/20 05:54:41;;;;;;;6.30;1.55;;;;;;;12.09;88.74;99667.63;10210005;28;20698;-72
2023/11/20 05:59:46;;;;;;;7.45;1.65;;;;;;;12.12;88.93;99680.66;10216290;28;20086;-72
2023/11/20 06:04:47;;;;;;;10.10;1.60;;;;;;;12.10;88.85;99683.47;10206397;28;20516;-70
2023/11/20 06:09:48;;;;;;;7.32;2.35;;;;;;;12.01;88.94;99663.03;10201871;28;20095;-71
2023/11/20 06:14:50;;;;;;;5.32;1.40;;;;;;;11.95;89.60;99680.47;10206648;28;20097;-70
2023/11/20 06:19:51;;;;;;;5.57;0.88;;;;;;;11.99;89.80;99679.19;10215038;28;20609;-73
2023/11/20 06:24:53;;;;;;;5.18;1.40;;;;;;;11.97;89.52;99689.13;10210671;28;20051;-71
2023/11/20 06:29:54;;;;;;;3.78;1.00;;;;;;;11.92;90.11;99690.53;10200275;28;20063;-68
2023/11/20 06:34:55;;;;;;;4.68;1.23;;;;;;;11.89;90.28;99689.00;10214008;28;20062;-74
2023/11/20 06:39:57;;;;;;;8.25;1.80;;;;;;;11.90;90.29;99698.66;10218230;28;20122;-70
2023/11/20 06:45:00;;;;;;;5.68;1.00;;;;;;;11.87;90.39;99692.81;10204242;28;20144;-71
2023/11/20 06:50:03;;;;;;;5.80;1.02;;;;;;;11.86;90.46;99697.31;10205597;28;20129;-74
2023/11/20 06:55:05;;;;;;;4.15;0.70;;;;;;;11.91;90.36;99697.69;10202062;28;20484;-72
2023/11/20 07:00:11;;;;;;;5.15;1.08;;;;;;;11.78;91.00;99691.84;10220619;28;20067;-74
2023/11/20 07:05:15;;;;;;;5.82;0.68;;;;;;;11.80;91.46;99697.84;10218905;28;20390;-71
2023/11/20 07:10:25;;;;;;;4.35;0.85;;;;;;;11.90;90.83;99703.19;10216713;28;20190;-72
2023/11/20 07:15:26;;;;;;;2.47;0.90;;;;;;;11.86;90.29;99699.97;10212292;28;20060;-74
2023/11/20 07:20:29;;;;;;;4.93;0.98;;;;;;;11.88;90.54;99708.66;10201851;28;20497;-75
2023/11/20 07:25:34;;;;;;;3.15;0.80;;;;;;;11.94;90.30;99723.28;10204532;28;20063;-71
2023/11/20 07:30:37;;;;;;;3.75;1.10;;;;;;;11.96;89.75;99715.97;10194302;28;20804;-75
2023/11/20 07:35:38;;;;;;;3.60;0.90;;;;;;;11.97;89.78;99729.16;10176385;23;20042;-73
2023/11/20 07:40:40;;;;;;;2.40;0.50;;;;;;;11.92;89.49;99731.41;10201989;28;20079;-73
2023/11/20 07:45:41;;;;;;;2.60;0.50;;;;;;;11.88;89.56;99724.66;10204000;28;20109;-71
2023/11/20 07:50:43;;;;;;;2.17;0.52;;;;;;;11.91;89.07;99729.69;10192952;28;20533;-79
2023/11/20 07:55:44;;;;;;;1.73;0.63;;;;;;;11.81;88.78;99721.75;10209060;28;20039;-73
2023/11/20 08:00:51;;;;;;;1.75;0.70;;;;;;;11.75;89.22;99722.28;10185568;28;20058;-70
2023/11/20 08:05:53;;;;;;;3.55;0.80;;;;;;;11.82;89.36;99739.41;10210742;28;20070;-70
2023/11/20 08:10:59;;;;;;;4.07;0.95;;;;;;;11.89;88.22;99734.34;10196351;28;20564;-72
2023/11/20 08:16:05;;;;;;;2.72;0.90;;;;;;;11.96;88.05;99745.28;10214256;28;20055;-71
2023/11/20 08:21:06;;;;;;;1.83;0.88;;;;;;;11.93;87.63;99741.09;10206718;28;20051;-73
2023/11/20 08:26:08;;;;;;;2.85;0.50;;;;;;;11.96;87.13;99745.28;10213188;28;20191;-72
2023/11/20 08:31:09;;;;;;;2.30;0.52;;;;;;;11.97;86.69;99742.47;10193727;28;20059;-73
2023/11/20 08:36:12;;;;;;;5.38;0.90;;;;;;;12.02;86.48;99740.25;10203244;29;20052;-73
2023/11/20 08:41:13;;;;;;;3.15;0.93;;;;;;;12.08;85.93;99740.63;10210050;28;20082;-67
2023/11/20 08:46:15;;;;;;;4.22;0.85;;;;;;;12.28;85.61;99734.25;10175359;28;20134;-71
2023/11/20 08:51:17;;;;;;;6.00;1.33;;;;;;;12.30;84.93;99724.25;10192785;28;20047;-73
2023/11/20 08:56:19;;;;;;;4.60;1.02;;;;;;;12.38;84.32;99719.03;10183614;28;20106;-69
2023/11/20 09:01:30;;;;;;;2.50;0.52;;;;;;;12.31;83.45;99733.09;10211439;28;20055;-68
2023/11/20 09:06:33;;;;;;;4.63;0.82;;;;;;;12.29;83.67;99729.72;10212369;28;20051;-69
2023/11/20 09:11:34;;;;;;;5.32;1.00;;;;;;;12.34;83.56;99738.97;10205723;28;20426;-66
2023/11/20 09:16:36;;;;;;;1.80;0.88;;;;;;;12.55;82.31;99730.72;10208566;28;20509;-69
2023/11/20 09:21:37;;;;;;;3.80;0.80;;;;;;;12.52;82.60;99746.19;10221509;28;20055;-73
2023/11/20 09:26:41;;;;;;;4.13;0.88;;;;;;;12.58;81.39;99760.78;10232930;28;20064;-71
2023/11/20 09:31:44;;;;;;;2.50;0.70;;;;;;;12.50;81.42;99754.34;10229010;28;20060;-74
2023/11/20 09:36:48;;;;;;;5.05;1.50;;;;;;;12.53;80.99;99743.38;10197941;28;20058;-73
2023/11/20 09:41:49;;;;;;;2.88;0.60;;;;;;;12.44;81.35;99743.44;10183098;29;20530;-73
2023/11/20 09:46:52;;;;;;;2.53;0.60;;;;;;;12.42;81.77;99740.09;10203034;28;20059;-73
2023/11/20 09:51:55;;;;;;;5.55;1.35;;;;;;;12.35;81.96;99740.66;10205834;28;20052;-72
2023/11/20 09:56:57;;;;;;;3.60;0.70;;;;;;;12.33;83.02;99737.28;10201407;28;20194;-69
2023/11/20 10:01:58;;;;;;;3.78;0.70;;;;;;;12.42;83.45;99724.06;10204498;28;20145;-70
2023/11/20 10:07:04;;;;;;;3.83;0.45;;;;;;;12.52;84.71;99711.47;10202622;28;20058;-73
2023/11/20 10:12:09;;;;;;;2.70;0.50;;;;;;;12.65;84.42;99714.63;10201065;28;20071;-68
2023/11/20 10:17:12;;;;;;;3.80;0.73;;;;;;;12.77;84.17;99699.25;10191598;28;20055;-71
2023/11/20 10:22:19;;;;;;;3.40;0.70;;;;;;;12.73;86.37;99703.22;10204496;28;20168;-69
2023/11/20 10:27:23;;;;;;;2.72;0.88;;;;;;;12.71;84.66;99695.34;10205924;28;21124;-70
2023/11/20 10:32:27;;;;;;;5.65;1.38;;;;;;;12.68;84.93;99692.97;10199832;28;20060;-67
2023/11/20 10:37:33;;;;;;;3.72;1.00;;;;;;;12.75;84.98;99695.06;10174688;29;20118;-69
2023/11/20 10:42:35;;;;;;;2.13;0.40;;;;;;;12.78;83.30;99682.25;10200152;28;20762;-70
2023/11/20 10:47:37;;;;;;;5.05;0.95;;;;;;;12.68;82.93;99676.13;10187836;28;20061;-67
2023/11/20 10:52:44;;;;;;;4.90;1.52;;;;;;;12.66;83.01;99681.63;10194078;28;20054;-70
2023/11/20 10:57:48;;;;;;;3.25;0.80;;;;;;;12.57;83.40;99668.34;10206183;28;20043;-68
2023/11/20 11:02:51;;;;;;;2.75;0.82;;;;;;;12.57;83.08;99666.50;10209819;28;20133;-70
2023/11/20 11:08:05;;;;;;;2.90;0.70;;;;;;;12.52;82.52;99650.09;10210760;28;20194;-71
2023/11/20 11:13:08;;;;;;;2.10;0.32;;;;;;;12.48;82.85;99643.38;10154751;28;20146;-69
2023/11/20 11:18:14;;;;;;;2.63;0.75;;;;;;;12.59;83.28;99650.34;10210659;28;20154;-68
2023/11/20 11:23:25;;;;;;;1.85;0.77;;;;;;;12.57;81.92;99634.47;10208290;28;21105;-68
2023/11/20 11:28:29;;;;;;;2.92;0.50;;;;;;;12.53;81.97;99633.09;10188839;28;20078;-69
2023/11/20 11:33:50;;;;;;;4.83;1.43;;;;;;;12.60;81.72;99631.50;10215059;28;20070;-70
2023/11/20 11:39:13;;;;;;;1.63;0.70;;;;;;;12.58;80.59;99620.13;10184722;28;20840;-69
2023/11/20 11:44:25;;;;;;;1.38;0.57;;;;;;;12.64;80.65;99616.84;10208086;28;20083;-68
2023/11/20 11:49:26;;;;;;;2.22;0.57;;;;;;;12.70;79.02;99610.91;10208789;28;20122;-68
2023/11/20 11:54:27;;;;;;;2.65;0.50;;;;;;;12.80;77.10;99596.63;10209170;28;20719;-71
2023/11/20 11:59:33;;;;;;;1.92;0.30;;;;;;;12.79;76.52;99579.78;10185346;28;20048;-69
2023/11/20 12:04:56;;;;;;;1.42;0.47;;;;;;;12.81;76.32;99588.47;10228528;23;20057;-68
2023/11/20 12:09:57;;;;;;;1.05;0.28;;;;;;;12.76;76.37;99576.56;10290316;28;20051;-69
2023/11/20 12:15:03;;;;;;;2.25;0.57;;;;;;;13.11;74.58;99566.81;10268239;28;20072;-71
2023/11/20 12:20:09;;;;;;;2.55;1.00;;;;;;;14.35;69.16;99562.84;10273023;28;20062;-67
2023/11/20 12:25:11;;;;;;;2.17;0.50;;;;;;;14.50;66.91;99561.19;10215029;28;20362;-71
2023/11/20 12:30:13;;;;;;;0.75;0.17;;;;;;;14.00;67.81;99564.78;10285779;28;20153;-70
2023/11/20 12:35:14;;;;;;;2.08;0.28;;;;;;;13.76;68.52;99553.81;10281904;28;20823;-70
2023/11/20 12:40:16;;;;;;;1.70;0.40;;;;;;;13.87;66.80;99546.50;10258225;28;20109;-72
2023/11/20 12:45:18;;;;;;;2.33;0.65;;;;;;;14.27;65.04;99542.25;10272535;28;20054;-70
2023/11/20 12:50:22;;;;;;;1.58;0.20;;;;;;;13.71;66.84;99545.44;10272589;28;20050;-71
2023/11/20 12:55:24;;;;;;;1.67;0.30;;;;;;;13.38;68.61;99549.81;10272370;28;20050;-70
2023/11/20 13:00:27;;;;;;;2.33;0.77;;;;;;;13.13;70.16;99533.59;10272578;28;20122;-70
2023/11/20 13:05:30;;;;;;;1.90;0.25;;;;;;;13.12;71.17;99539.94;10268715;28;20054;-72
2023/11/20 13:10:33;;;;;;;1.02;0.35;;;;;;;12.99;71.80;99534.19;10248664;28;20050;-72
2023/11/20 13:15:35;;;;;;;2.45;0.30;;;;;;;12.96;72.26;99535.31;10274502;28;20049;-69
2023/11/20 13:20:44;;;;;;;1.48;0.20;;;;;;;12.98;72.47;99538.66;10278016;28;20069;-70
2023/11/20 13:25:51;;;;;;;2.72;0.32;;;;;;;13.05;72.24;99534.38;10268052;28;20051;-73
2023/11/20 13:30:54;;;;;;;2.92;0.40;;;;;;;13.04;71.32;99543.38;10263946;28;20682;-66
2023/11/20 13:36:00;;;;;;;3.22;0.47;;;;;;;13.10;69.42;99525.88;10247572;28;20061;-67
2023/11/20 13:41:08;;;;;;;1.80;0.98;;;;;;;13.11;69.52;99524.06;10245358;28;20125;-69
2023/11/20 13:46:10;;;;;;;0.50;0.10;;;;;;;13.03;70.26;99512.31;10281876;28;20317;-70
2023/11/20 13:51:12;;;;;;;1.02;0.40;;;;;;;12.95;71.50;99517.59;10271642;28;20046;-76
2023/11/20 13:56:14;;;;;;;1.15;0.30;;;;;;;12.83;76.06;99519.69;10267101;28;20166;-71
2023/11/20 14:01:16;;;;;;;3.33;0.43;;;;;;;13.08;78.09;99511.84;10281901;28;20589;-73
2023/11/20 14:06:17;;;;;;;1.10;0.40;;;;;;;13.03;79.13;99498.09;10270763;28;20700;-70
2023/11/20 14:11:19;;;;;;;1.48;0.40;;;;;;;13.22;78.33;99507.75;10277054;28;20058;-72
2023/11/20 14:16:21;;;;;;;0.90;0.40;;;;;;;13.24;78.00;99505.75;10279190;28;20054;-70
2023/11/20 14:21:24;;;;;;;0.95;0.35;;;;;;;13.29;77.21;99516.81;10276900;28;20420;-73
2023/11/20 14:26:29;;;;;;;4.95;1.33;;;;;;;13.14;77.45;99502.38;10283948;28;20042;-70
2023/11/20 14:31:36;;;;;;;1.13;0.30;;;;;;;12.99;78.28;99497.59;10257918;28;20057;-70
2023/11/20 14:36:38;;;;;;;1.98;0.60;;;;;;;12.94;78.44;99499.91;10268214;28;20129;-69
2023/11/20 14:41:39;;;;;;;1.88;0.55;;;;;;;12.94;77.89;99507.94;10257482;28;20663;-71
2023/11/20 14:46:41;;;;;;;1.65;0.30;;;;;;;12.86;76.74;99507.88;10263957;28;20130;-71
2023/11/20 14:51:42;;;;;;;0.75;0.30;;;;;;;12.83;76.52;99492.97;10293809;28;20073;-71
2023/11/20 14:56:44;;;;;;;0.95;0.30;;;;;;;12.75;76.49;99478.75;10295362;28;22597;-73
2023/11/20 15:01:46;;;;;;;1.10;0.40;;;;;;;12.75;75.94;99490.28;10263981;28;20149;-72
2023/11/20 15:06:47;;;;;;;0.63;0.20;;;;;;;12.72;75.80;99515.44;10249779;28;20055;-72
2023/11/20 15:11:49;;;;;;;0.40;0.20;;;;;;;12.61;75.99;99502.34;10278456;28;20065;-71
2023/11/20 15:16:50;;;;;;;1.50;0.40;;;;;;;12.64;75.59;99502.03;10286323;28;20054;-68
2023/11/20 15:21:53;;;;;;;1.88;0.38;;;;;;;12.63;75.57;99503.03;10286173;28;20080;-70
2023/11/20 15:26:56;;;;;;;3.30;0.32;;;;;;;12.62;75.08;99503.19;10273232;28;20061;-69
2023/11/20 15:31:57;;;;;;;1.23;0.43;;;;;;;12.61;75.51;99518.38;10205846;28;20149;-73
2023/11/20 15:36:59;;;;;;;1.58;0.70;;;;;;;12.60;76.07;99505.19;10259939;28;20403;-70
2023/11/20 15:42:00;;;;;;;1.80;0.60;;;;;;;12.57;76.32;99498.31;10250969;28;20090;-73
2023/11/20 15:47:03;;;;;;;2.38;0.68;;;;;;;12.54;76.53;99510.13;10267752;28;20058;-72
2023/11/20 15:52:08;;;;;;;2.08;0.50;;;;;;;12.54;76.66;99509.31;10249709;28;20068;-70
2023/11/20 15:57:11;;;;;;;1.75;0.45;;;;;;;12.50;76.93;99499.91;10256239;28;20046;-71
2023/11/20 16:02:13;;;;;;;2.35;0.73;;;;;;;12.47;75.67;99508.25;10284320;28;20706;-72
2023/11/20 16:07:15;;;;;;;2.70;0.70;;;;;;;12.38;76.26;99505.50;10290023;28;20093;-68
2023/11/20 16:12:17;;;;;;;1.98;0.32;;;;;;;12.24;77.15;99498.03;10282185;28;20062;-68
2023/11/20 16:17:20;;;;;;;2.08;0.82;;;;;;;12.30;77.45;99501.94;10282190;28;20057;-67
2023/11/20 16:22:22;;;;;;;1.58;0.40;;;;;;;12.35;76.85;99505.78;10285012;28;20074;-68
2023/11/20 16:27:23;;;;;;;0.73;0.30;;;;;;;12.21;76.75;99501.00;10314292;28;20052;-68
2023/11/20 16:32:25;;;;;;;1.25;0.40;;;;;;;12.17;78.29;99502.28;10267586;28;20692;-67
2023/11/20 16:37:27;;;;;;;2.35;0.93;;;;;;;12.25;80.17;99517.53;10286752;28;20065;-72
2023/11/20 16:42:29;;;;;;;1.88;0.50;;;;;;;12.18;80.52;99517.31;10267084;28;20055;-68
2023/11/20 16:47:30;;;;;;;1.65;0.68;;;;;;;12.11;82.13;99511.75;10282865;28;20046;-67
2023/11/20 16:52:32;;;;;;;1.73;1.25;;;;;;;12.13;81.85;99516.91;10260864;28;20529;-68
2023/11/20 16:57:35;;;;;;;2.20;0.40;;;;;;;12.17;83.04;99512.97;10290955;28;21653;-68
2023/11/20 17:02:36;;;;;;;2.10;0.68;;;;;;;12.13;83.19;99517.78;10259225;28;20063;-70
2023/11/20 17:07:40;;;;;;;2.72;0.80;;;;;;;12.11;87.11;99519.75;10280087;28;21256;-68
2023/11/20 17:12:41;;;;;;;0.80;0.30;;;;;;;12.09;88.12;99515.56;10282482;28;20097;-68
2023/11/20 17:17:44;;;;;;;1.48;0.57;;;;;;;12.07;89.13;99517.53;10262863;28;20553;-71
2023/11/20 17:22:48;;;;;;;1.40;0.65;;;;;;;11.95;89.60;99515.09;10276790;28;20054;-68
2023/11/20 17:27:52;;;;;;;3.50;1.15;;;;;;;12.03;92.40;99515.16;10261594;28;20056;-71
2023/11/20 17:32:58;;;;;;;4.35;0.95;;;;;;;11.90;91.69;99501.31;10277552;28;20062;-70
2023/11/20 17:37:59;;;;;;;1.83;0.60;;;;;;;12.00;91.02;99506.63;10264718;28;20076;-68
2023/11/20 17:43:00;;;;;;;8.32;5.32;;;;;;;12.11;92.38;99502.91;10241662;28;20540;-71
2023/11/20 17:48:02;;;;;;;3.08;1.50;;;;;;;12.06;91.14;99502.53;10271008;28;20472;-72
2023/11/20 17:53:06;;;;;;;4.25;1.05;;;;;;;11.98;90.56;99501.47;10279190;28;20073;-69
2023/11/20 17:58:08;;;;;;;2.50;1.17;;;;;;;12.00;90.99;99503.97;10278721;28;20085;-68
2023/11/20 18:03:10;;;;;;;4.93;2.28;;;;;;;11.98;91.20;99496.13;10254710;28;20058;-68
2023/11/20 18:08:12;;;;;;;4.60;2.35;;;;;;;12.00;91.35;99501.31;10275519;28;20768;-68
2023/11/20 18:13:13;;;;;;;3.90;2.10;;;;;;;11.99;90.73;99508.47;10277172;28;20062;-69
2023/11/20 18:18:16;;;;;;;43.28;34.22;;;;;;;11.97;90.92;99506.94;10262254;28;20078;-68
2023/11/20 18:23:19;;;;;;;11.48;8.00;;;;;;;11.88;90.63;99503.31;10257545;28;20042;-68
2023/11/20 18:28:21;;;;;;;5.35;1.92;;;;;;;11.87;89.95;99504.28;10279617;28;20141;-69
2023/11/20 18:33:22;;;;;;;4.82;1.60;;;;;;;11.81;90.22;99504.91;10279893;28;20140;-68
2023/11/20 18:38:29;;;;;;;4.40;1.73;;;;;;;11.82;89.64;99509.25;10263318;28;20054;-67
2023/11/20 18:43:33;;;;;;;5.07;2.22;;;;;;;11.76;89.27;99504.53;10236346;28;20110;-72
2023/11/20 18:48:35;;;;;;;6.20;1.70;;;;;;;11.71;89.65;99498.78;10260569;28;20054;-68
2023/11/20 18:53:38;;;;;;;3.92;1.65;;;;;;;11.67;89.17;99498.25;10267383;28;20113;-69
2023/11/20 18:58:40;;;;;;;6.95;2.05;;;;;;;11.72;88.31;99495.13;10257178;28;20050;-70
2023/11/20 19:03:45;;;;;;;4.13;2.05;;;;;;;11.67;87.89;99501.75;10247423;28;20440;-72
2023/11/20 19:08:47;;;;;;;4.72;2.35;;;;;;;11.65;89.47;99498.41;10276129;28;20046;-70
2023/11/20 19:13:50;;;;;;;5.60;2.47;;;;;;;11.68;90.87;99495.44;10266344;28;20062;-69
2023/11/20 19:18:51;;;;;;;4.88;2.65;;;;;;;11.63;89.92;99484.38;10291524;28;20069;-72
2023/11/20 19:23:53;;;;;;;6.10;2.30;;;;;;;11.61;91.25;99491.69;10285234;28;20137;-68
2023/11/20 19:28:56;;;;;;;5.03;2.20;;;;;;;11.55;91.27;99489.63;10281374;28;20054;-68
2023/11/20 19:34:00;;;;;;;5.43;2.60;;;;;;;11.56;91.68;99493.97;10281672;28;21070;-69
2023/11/20 19:39:03;;;;;;;4.40;2.00;;;;;;;11.48;92.57;99484.06;10281529;28;20096;-68
2023/11/20 19:44:05;;;;;;;4.25;1.92;;;;;;;11.63;93.20;99495.06;10236572;28;20122;-68
2023/11/20 19:49:06;;;;;;;5.13;2.53;;;;;;;11.67;93.91;99488.41;10261214;28;20046;-68
2023/11/20 19:54:08;;;;;;;4.68;2.05;;;;;;;11.72;91.66;99497.81;10256713;28;20058;-69
2023/11/20 19:59:12;;;;;;;5.07;2.07;;;;;;;11.74;92.36;99490.47;10259690;28;20497;-72
2023/11/20 20:04:13;;;;;;;4.93;1.77;;;;;;;11.60;91.13;99483.84;10229544;28;20403;-75
2023/11/20 20:09:16;;;;;;;3.63;1.95;;;;;;;11.58;91.25;99485.81;10263480;28;20516;-71
2023/11/20 20:14:17;;;;;;;5.30;2.10;;;;;;;11.47;91.02;99478.88;10266055;28;20125;-69
2023/11/20 20:19:18;;;;;;;6.10;2.03;;;;;;;11.48;92.02;99477.84;10234604;28;20046;-71
2023/11/20 20:24:21;;;;;;;5.35;2.05;;;;;;;11.54;92.76;99474.59;10265430;28;20103;-68
2023/11/20 20:29:23;;;;;;;5.03;2.30;;;;;;;11.63;92.50;99476.41;10268369;28;20133;-72
2023/11/20 20:34:24;;;;;;;5.65;1.92;;;;;;;11.56;90.66;99480.63;10232703;28;20069;-69
2023/11/20 20:39:27;;;;;;;3.45;1.60;;;;;;;11.53;90.09;99478.28;10275378;28;20129;-71
2023/11/20 20:44:28;;;;;;;3.63;2.13;;;;;;;11.47;89.84;99477.03;10272338;28;20200;-70
2023/11/20 20:49:30;;;;;;;4.18;1.25;;;;;;;11.41;89.51;99480.28;10260935;28;20075;-71
2023/11/20 20:54:32;;;;;;;5.35;1.77;;;;;;;11.42;89.71;99473.94;10275897;28;20074;-75
2023/11/20 20:59:34;;;;;;;3.47;2.03;;;;;;;11.49;90.32;99479.56;10268364;28;20118;-71
2023/11/20 21:04:38;;;;;;;2.92;1.65;;;;;;;11.45;90.11;99486.16;10285814;28;20701;-69
2023/11/20 21:09:42;;;;;;;7.55;1.70;;;;;;;11.40;90.12;99475.94;10287962;28;20054;-70
2023/11/20 21:14:44;;;;;;;3.47;1.37;;;;;;;11.37;91.06;99476.25;10290306;28;20156;-70
2023/11/20 21:19:46;;;;;;;4.35;1.85;;;;;;;11.33;91.42;99474.84;10295926;28;20504;-70
2023/11/20 21:24:48;;;;;;;4.90;1.45;;;;;;;11.26;91.37;99471.09;10264430;28;20042;-70
2023/11/20 21:29:51;;;;;;;4.13;1.50;;;;;;;11.29;91.64;99471.66;10280699;28;20162;-70
2023/11/20 21:34:53;;;;;;;3.22;1.70;;;;;;;11.20;91.11;99467.22;10282301;28;20558;-76
2023/11/20 21:40:05;;;;;;;2.58;1.33;;;;;;;11.24;92.30;99468.56;10272438;28;20164;-68
2023/11/20 21:45:07;;;;;;;4.95;1.67;;;;;;;11.29;91.76;99458.34;10192102;28;20065;-69
2023/11/20 21:50:08;;;;;;;3.17;1.58;;;;;;;11.30;91.88;99470.69;10290997;28;20062;-71
2023/11/20 21:55:10;;;;;;;4.85;1.23;;;;;;;11.28;92.25;99479.78;10252560;28;21092;-67
2023/11/20 22:00:13;;;;;;;4.68;1.08;;;;;;;11.30;92.15;99480.47;10244362;28;20062;-69
2023/11/20 22:05:15;;;;;;;3.70;1.10;;;;;;;11.32;91.99;99474.03;10259138;28;20492;-70
2023/11/20 22:10:18;;;;;;;5.20;1.23;;;;;;;11.22;91.52;99470.56;10259886;28;20057;-68
2023/11/20 22:15:21;;;;;;;2.42;1.02;;;;;;;11.17;91.99;99471.97;10293455;28;20053;-69
2023/11/20 22:20:24;;;;;;;3.80;1.30;;;;;;;11.19;92.21;99475.34;10289261;28;20055;-68
2023/11/20 22:25:25;;;;;;;7.63;2.83;;;;;;;11.17;92.21;99479.97;10280781;28;20046;-67
2023/11/20 22:30:28;;;;;;;3.58;1.48;;;;;;;11.15;92.93;99480.09;10287205;28;20050;-69
2023/11/20 22:35:30;;;;;;;4.65;1.85;;;;;;;11.14;93.96;99471.28;10262772;28;20062;-70
2023/11/20 22:40:31;;;;;;;3.80;1.73;;;;;;;11.24;93.13;99484.56;10285868;28;20108;-70
2023/11/20 22:45:33;;;;;;;3.33;1.30;;;;;;;11.22;93.93;99486.53;10269992;28;20052;-70
2023/11/20 22:50:35;;;;;;;2.90;1.63;;;;;;;11.21;94.59;99478.69;10289451;28;20117;-69
2023/11/20 22:55:37;;;;;;;3.75;1.70;;;;;;;11.28;95.24;99480.63;10266629;28;20697;-72
2023/11/20 23:00:40;;;;;;;4.25;1.80;;;;;;;11.33;94.93;99472.19;10291877;28;20049;-70
2023/11/20 23:05:42;;;;;;;2.95;1.50;;;;;;;11.32;95.64;99465.19;10289672;28;20050;-70
2023/11/20 23:10:44;;;;;;;4.82;2.00;;;;;;;11.19;96.36;99464.69;10282044;28;20050;-71
2023/11/20 23:15:46;;;;;;;6.50;1.73;;;;;;;11.16;97.04;99457.00;10289661;28;20525;-70
2023/11/20 23:20:48;;;;;;;4.50;1.80;;;;;;;11.16;96.71;99449.84;10292144;28;20053;-69
2023/11/20 23:25:51;;;;;;;4.57;2.13;;;;;;;11.12;96.94;99459.09;10286046;28;20041;-70